Meteorología y climatología de Navarra
Datos de la estación - Meteo Navarra

Estación de Tudela (Montes del Cierzo) GN

Altitud 314 m.


Datos desde el 23/05/2020 hasta el 24/05/2020 en horario solar
Los datos son PROVISIONALES

Anterior Página 1 de 1 Siguiente Descargar: Formato para Excel 2000 o superior   Formato csv   Formato para OpenOffice Calc
Fecha Temperatura Humedad relativa Radiación global Insolación Precipitación Vel. viento 10 m Vel. viento 10 m Dir. viento 10 m
ºC % W/m² s l/m² m/s km/h º
23/05/2020 0:00 19.0 77 0.0 0 0.0 4.3 15.3 334
23/05/2020 0:10 18.9 77 0.0 0 0.0 4.6 16.6 334
23/05/2020 0:20 18.9 76 0.0 0 0.0 3.8 13.6 326
23/05/2020 0:30 18.9 76 0.0 0 0.0 3.0 10.8 321
23/05/2020 0:40 18.8 77 0.0 0 0.0 3.5 12.6 320
23/05/2020 0:50 18.7 77 0.0 0 0.0 3.6 12.9 322
23/05/2020 1:00 18.6 78 0.0 0 0.0 3.8 13.5 327
23/05/2020 1:10 18.5 78 0.0 0 0.0 3.8 13.5 324
23/05/2020 1:20 18.4 78 0.0 0 0.0 4.1 14.6 319
23/05/2020 1:30 18.3 78 0.0 0 0.0 4.0 14.3 320
23/05/2020 1:40 18.3 78 0.0 0 0.0 4.6 16.6 325
23/05/2020 1:50 18.2 78 0.0 0 0.0 4.0 14.3 321
23/05/2020 2:00 18.0 78 0.0 0 0.0 4.4 15.7 323
23/05/2020 2:10 17.9 78 0.0 0 0.0 4.6 16.6 321
23/05/2020 2:20 17.9 78 0.0 0 0.0 4.5 16.1 324
23/05/2020 2:30 17.6 79 0.0 0 0.0 4.2 15.2 322
23/05/2020 2:40 17.6 79 0.0 0 0.0 4.8 17.2 323
23/05/2020 2:50 17.4 79 0.0 0 0.0 4.1 14.7 325
23/05/2020 3:00 17.3 80 0.0 0 0.0 4.2 15.2 324
23/05/2020 3:10 17.2 80 0.0 0 0.0 4.5 16.2 327
23/05/2020 3:20 17.1 80 0.0 0 0.0 4.7 16.8 325
23/05/2020 3:30 17.0 80 0.0 0 0.0 4.6 16.6 323
23/05/2020 3:40 16.9 80 0.0 0 0.0 4.5 16.3 313
23/05/2020 3:50 16.8 81 0.0 0 0.0 4.8 17.4 310
23/05/2020 4:00 16.8 81 0.0 0 0.0 4.8 17.1 310
23/05/2020 4:10 16.7 81 0.0 0 0.0 4.5 16.2 316
23/05/2020 4:20 16.6 82 0.0 0 0.0 4.4 15.8 317
23/05/2020 4:30 16.5 82 0.0 0 0.0 4.1 14.7 315
23/05/2020 4:40 16.5 82 0.0 0 0.0 3.7 13.5 313
23/05/2020 4:50 16.4 83 0.0 0 0.0 4.1 14.9 317
23/05/2020 5:00 16.4 83 0.0 0 0.0 3.6 13.0 316
23/05/2020 5:10 16.6 82 9.7 0 0.0 4.0 14.5 315
23/05/2020 5:20 16.6 82 24.1 0 0.0 3.2 11.4 315
23/05/2020 5:30 16.7 82 36.1 0 0.0 3.8 13.8 312
23/05/2020 5:40 16.8 82 59.5 78 0.0 3.8 13.8 311
23/05/2020 5:50 17.1 81 102.3 350 0.0 4.2 15.3 313
23/05/2020 6:00 17.7 78 134.2 522 0.0 4.1 14.7 314
23/05/2020 6:10 17.9 77 135.7 352 0.0 3.9 14.0 314
23/05/2020 6:20 18.2 75 181.1 600 0.0 3.8 13.6 312
23/05/2020 6:30 18.6 73 238.8 600 0.0 4.3 15.6 319
23/05/2020 6:40 19.0 72 296.7 600 0.0 4.2 14.9 318
23/05/2020 6:50 19.7 70 316.8 600 0.0 3.9 14.1 322
23/05/2020 7:00 20.0 68 339.1 600 0.0 4.0 14.4 320
23/05/2020 7:10 20.0 67 363.3 600 0.0 5.4 19.3 321
23/05/2020 7:20 20.0 67 390.8 600 0.0 5.0 18.1 318
23/05/2020 7:30 20.1 66 402.0 600 0.0 5.1 18.5 323
23/05/2020 7:40 20.5 65 467.5 600 0.0 5.8 21.0 321
23/05/2020 7:50 20.8 65 513.4 600 0.0 5.7 20.7 327
23/05/2020 8:00 21.2 64 532.2 600 0.0 5.3 19.0 319
23/05/2020 8:10 21.2 63 559.0 600 0.0 6.1 21.8 316
23/05/2020 8:20 21.1 63 559.8 600 0.0 5.9 21.3 315
23/05/2020 8:30 21.0 64 477.4 600 0.0 5.4 19.3 320
23/05/2020 8:40 20.9 63 519.6 600 0.0 6.3 22.8 318
23/05/2020 8:50 21.5 63 760.3 600 0.0 5.5 19.8 323
23/05/2020 9:00 22.0 60 776.6 600 0.0 6.1 21.9 320
23/05/2020 9:10 22.2 59 821.0 600 0.0 6.0 21.7 316
23/05/2020 9:20 22.2 59 777.6 546 0.0 6.4 23.0 313
23/05/2020 9:30 22.5 59 761.9 600 0.0 5.3 18.9 327
23/05/2020 9:40 22.4 58 549.4 590 0.0 5.1 18.3 324
23/05/2020 9:50 21.7 60 596.4 578 0.0 5.2 18.6 328
23/05/2020 10:00 22.1 59 772.9 534 0.0 5.9 21.2 323
23/05/2020 10:10 23.1 57 899.0 600 0.0 5.6 20.1 316
23/05/2020 10:20 23.2 55 906.0 600 0.0 5.5 19.9 322
23/05/2020 10:30 23.6 55 917.0 594 0.0 6.0 21.6 330
23/05/2020 10:40 23.5 54 809.0 480 0.0 6.2 22.2 333
23/05/2020 10:50 23.4 55 613.4 348 0.0 6.2 22.3 336
23/05/2020 11:00 22.8 56 819.0 386 0.0 6.9 25.0 318
23/05/2020 11:10 23.7 54 925.0 556 0.0 6.1 21.9 313
23/05/2020 11:20 23.6 54 562.6 180 0.0 6.6 23.8 328
23/05/2020 11:30 22.3 58 486.0 160 0.0 7.3 26.4 337
23/05/2020 11:40 22.0 58 503.8 138 0.0 7.7 27.8 339
23/05/2020 11:50 22.0 57 551.2 596 0.0 6.7 24.1 339
23/05/2020 12:00 22.5 55 861.0 574 0.0 7.5 26.9 343
23/05/2020 12:10 22.8 55 571.5 366 0.0 6.2 22.4 334
23/05/2020 12:20 22.4 55 664.2 456 0.0 7.3 26.2 343
23/05/2020 12:30 23.0 53 835.0 520 0.0 7.0 25.2 339
23/05/2020 12:40 22.3 53 519.6 346 0.0 7.7 27.8 353
23/05/2020 12:50 23.0 53 822.0 600 0.0 7.6 27.5 350
23/05/2020 13:00 22.7 52 845.0 576 0.0 7.2 26.0 341
23/05/2020 13:10 22.9 51 993.0 584 0.0 8.2 29.6 351
23/05/2020 13:20 22.9 51 866.0 592 0.0 8.1 29.0 352
23/05/2020 13:30 23.1 51 941.0 586 0.0 7.0 25.3 345
23/05/2020 13:40 23.2 50 915.0 600 0.0 7.6 27.4 345
23/05/2020 13:50 23.3 50 907.0 600 0.0 6.9 24.9 352
23/05/2020 14:00 23.5 49 803.0 600 0.0 6.8 24.5 350
23/05/2020 14:10 23.3 50 897.0 594 0.0 6.3 22.5 350
23/05/2020 14:20 23.6 48 919.0 600 0.0 7.4 26.5 352
23/05/2020 14:30 23.1 49 699.5 584 0.0 7.2 25.8 349
23/05/2020 14:40 22.1 51 434.5 176 0.0 7.4 26.8 353
23/05/2020 14:50 22.2 52 700.6 598 0.0 6.8 24.6 350
23/05/2020 15:00 21.9 51 377.4 140 0.0 7.2 25.9 350
23/05/2020 15:10 21.2 54 423.8 328 0.0 8.1 29.1 353
23/05/2020 15:20 21.3 52 559.7 600 0.0 8.5 30.7 347
23/05/2020 15:30 21.5 52 592.2 600 0.0 8.4 30.3 348
23/05/2020 15:40 21.5 51 648.0 600 0.0 9.1 32.7 350
23/05/2020 15:50 21.4 53 559.1 520 0.0 7.9 28.5 348
23/05/2020 16:00 21.1 52 572.9 576 0.0 8.4 30.2 347
23/05/2020 16:10 20.2 52 331.5 314 0.0 9.1 32.9 346
23/05/2020 16:20 19.6 54 378.5 346 0.0 9.5 34.2 354
23/05/2020 16:30 20.1 53 490.3 598 0.0 8.7 31.4 351
23/05/2020 16:40 19.8 53 452.1 594 0.0 9.9 35.6 347
23/05/2020 16:50 19.7 53 432.8 600 0.0 7.9 28.3 344
23/05/2020 17:00 19.5 53 313.8 416 0.0 8.5 30.7 341
23/05/2020 17:10 18.5 56 275.3 368 0.0 7.6 27.5 343
23/05/2020 17:20 18.8 56 275.4 458 0.0 6.8 24.4 339
23/05/2020 17:30 18.9 55 277.4 480 0.0 6.5 23.4 341
23/05/2020 17:40 18.5 56 163.5 96 0.0 7.5 26.9 341
23/05/2020 17:50 18.3 57 233.9 536 0.0 6.5 23.5 341
23/05/2020 18:00 18.3 57 195.9 538 0.0 7.5 26.8 344
23/05/2020 18:10 18.2 57 169.2 600 0.0 7.0 25.3 344
23/05/2020 18:20 17.9 58 134.5 564 0.0 6.1 22.1 343
23/05/2020 18:30 17.6 60 51.7 4 0.0 7.4 26.6 346
23/05/2020 18:40 17.1 61 31.0 0 0.0 6.5 23.3 341
23/05/2020 18:50 16.7 63 24.5 0 0.0 6.3 22.6 343
23/05/2020 19:00 16.4 64 19.2 0 0.0 6.0 21.7 340
23/05/2020 19:10 16.2 66 3.8 0 0.0 5.5 19.7 339
23/05/2020 19:20 15.9 67 0.0 0 0.0 5.1 18.3 335
23/05/2020 19:30 15.8 66 0.0 0 0.0 5.6 20.2 326
23/05/2020 19:40 15.8 65 0.0 0 0.0 5.6 20.1 319
23/05/2020 19:50 15.7 66 0.0 0 0.0 5.5 19.9 319
23/05/2020 20:00 15.5 66 0.0 0 0.0 5.0 18.0 324
23/05/2020 20:10 15.3 66 0.0 0 0.0 5.3 19.2 326
23/05/2020 20:20 15.3 65 0.0 0 0.0 5.2 18.9 322
23/05/2020 20:30 15.2 65 0.0 0 0.0 5.2 18.9 321
23/05/2020 20:40 15.0 65 0.0 0 0.0 5.6 20.1 328
23/05/2020 20:50 14.8 66 0.0 0 0.0 5.4 19.6 322
23/05/2020 21:00 14.7 66 0.0 0 0.0 5.1 18.3 318
23/05/2020 21:10 14.5 65 0.0 0 0.0 5.4 19.5 323
23/05/2020 21:20 14.4 64 0.0 0 0.0 6.3 22.6 330
23/05/2020 21:30 14.4 64 0.0 0 0.0 5.1 18.3 329
23/05/2020 21:40 14.3 64 0.0 0 0.0 4.8 17.2 323
23/05/2020 21:50 14.1 64 0.0 0 0.0 4.4 16.0 312
23/05/2020 22:00 14.1 66 0.0 0 0.0 5.5 19.7 315
23/05/2020 22:10 14.1 64 0.0 0 0.0 5.6 20.3 312
23/05/2020 22:20 14.0 64 0.0 0 0.0 6.2 22.4 313
23/05/2020 22:30 14.0 64 0.0 0 0.0 5.2 18.8 312
23/05/2020 22:40 13.7 65 0.0 0 0.0 4.9 17.7 312
23/05/2020 22:50 13.7 65 0.0 0 0.0 5.5 19.9 310
23/05/2020 23:00 13.5 64 0.0 0 0.0 5.4 19.3 309
23/05/2020 23:10 13.4 64 0.0 0 0.0 5.7 20.4 308
23/05/2020 23:20 13.3 63 0.0 0 0.0 4.9 17.8 312
23/05/2020 23:30 13.1 63 0.0 0 0.0 4.6 16.5 312
23/05/2020 23:40 12.9 64 0.0 0 0.0 4.6 16.5 310
23/05/2020 23:50 12.7 65 0.0 0 0.0 4.9 17.5 310
Anterior Página 1 de 1 Siguiente

NOTA: Tipo de datos según el color:
   - Valores diarios o 10 minutos correctos
   - Valores diarios calculados a partir de un número de datos 10 minutos menor que 144 y mayor que 120, o de un número de datos semihorarios menor que 48 y mayor que 40 (caso de las estaciones de INTIA y del Ministerio)
   - Valores diez minutos estimados


Contacto        Enlaces        Aviso legal